sensor_id;sensor_type;location;lat;lon;timestamp;temperature;humidity
69387;SHT31;56575;48.942;8.404;2023-04-01T00:01:22;10.54;76.90
69387;SHT31;56575;48.942;8.404;2023-04-01T00:03:47;10.48;76.79
69387;SHT31;56575;48.942;8.404;2023-04-01T00:06:15;10.49;76.82
69387;SHT31;56575;48.942;8.404;2023-04-01T00:08:41;10.48;76.94
69387;SHT31;56575;48.942;8.404;2023-04-01T00:11:06;10.48;76.85
69387;SHT31;56575;48.942;8.404;2023-04-01T00:13:32;10.49;76.96
69387;SHT31;56575;48.942;8.404;2023-04-01T00:15:57;10.51;76.67
69387;SHT31;56575;48.942;8.404;2023-04-01T00:18:23;10.54;76.68
69387;SHT31;56575;48.942;8.404;2023-04-01T00:20:51;10.58;76.30
69387;SHT31;56575;48.942;8.404;2023-04-01T00:23:18;10.61;76.43
69387;SHT31;56575;48.942;8.404;2023-04-01T00:25:44;10.61;76.33
69387;SHT31;56575;48.942;8.404;2023-04-01T00:28:12;10.65;75.87
69387;SHT31;56575;48.942;8.404;2023-04-01T00:30:37;10.68;76.15
69387;SHT31;56575;48.942;8.404;2023-04-01T00:33:03;10.72;75.54
69387;SHT31;56575;48.942;8.404;2023-04-01T00:35:28;10.73;75.22
69387;SHT31;56575;48.942;8.404;2023-04-01T00:37:54;10.73;75.31
69387;SHT31;56575;48.942;8.404;2023-04-01T00:40:30;10.71;75.88
69387;SHT31;56575;48.942;8.404;2023-04-01T00:42:56;10.68;76.18
69387;SHT31;56575;48.942;8.404;2023-04-01T00:45:42;10.67;76.38
69387;SHT31;56575;48.942;8.404;2023-04-01T00:48:11;10.62;76.66
69387;SHT31;56575;48.942;8.404;2023-04-01T00:50:40;10.61;76.77
69387;SHT31;56575;48.942;8.404;2023-04-01T00:53:07;10.62;76.79
69387;SHT31;56575;48.942;8.404;2023-04-01T00:55:35;10.61;76.39
69387;SHT31;56575;48.942;8.404;2023-04-01T00:58:05;10.58;76.68
69387;SHT31;56575;48.942;8.404;2023-04-01T01:00:33;10.58;76.76
69387;SHT31;56575;48.942;8.404;2023-04-01T01:02:58;10.57;76.92
69387;SHT31;56575;48.942;8.404;2023-04-01T01:05:36;10.52;77.12
69387;SHT31;56575;48.942;8.404;2023-04-01T01:11:10;10.51;77.32
69387;SHT31;56575;48.942;8.404;2023-04-01T01:13:58;10.51;77.51
69387;SHT31;56575;48.942;8.404;2023-04-01T01:16:34;10.48;77.42
69387;SHT31;56575;48.942;8.404;2023-04-01T01:22:09;10.41;77.79
69387;SHT31;56575;48.942;8.404;2023-04-01T01:25:09;10.40;77.76
69387;SHT31;56575;48.942;8.404;2023-04-01T01:27:39;10.36;78.18
69387;SHT31;56575;48.942;8.404;2023-04-01T01:30:20;10.36;77.83
69387;SHT31;56575;48.942;8.404;2023-04-01T01:33:06;10.36;77.53
69387;SHT31;56575;48.942;8.404;2023-04-01T01:35:54;10.34;77.12
69387;SHT31;56575;48.942;8.404;2023-04-01T01:38:31;10.37;76.89
69387;SHT31;56575;48.942;8.404;2023-04-01T01:40:59;10.34;77.11
69387;SHT31;56575;48.942;8.404;2023-04-01T01:43:36;10.31;76.71
69387;SHT31;56575;48.942;8.404;2023-04-01T01:46:08;10.36;76.89
69387;SHT31;56575;48.942;8.404;2023-04-01T01:48:36;10.38;76.46
69387;SHT31;56575;48.942;8.404;2023-04-01T01:51:04;10.37;76.18
69387;SHT31;56575;48.942;8.404;2023-04-01T01:53:30;10.31;76.13
69387;SHT31;56575;48.942;8.404;2023-04-01T01:55:55;10.31;76.18
69387;SHT31;56575;48.942;8.404;2023-04-01T01:58:32;10.30;76.39
69387;SHT31;56575;48.942;8.404;2023-04-01T02:01:07;10.23;77.74
69387;SHT31;56575;48.942;8.404;2023-04-01T02:03:36;10.13;78.76
69387;SHT31;56575;48.942;8.404;2023-04-01T02:06:04;10.10;77.15
69387;SHT31;56575;48.942;8.404;2023-04-01T02:11:13;10.14;76.60
69387;SHT31;56575;48.942;8.404;2023-04-01T02:13:42;10.16;76.40
69387;SHT31;56575;48.942;8.404;2023-04-01T02:16:18;10.20;75.93
69387;SHT31;56575;48.942;8.404;2023-04-01T02:18:48;10.20;75.60
69387;SHT31;56575;48.942;8.404;2023-04-01T02:21:16;10.23;75.15
69387;SHT31;56575;48.942;8.404;2023-04-01T02:23:44;10.27;75.22
69387;SHT31;56575;48.942;8.404;2023-04-01T02:26:11;10.29;74.76
69387;SHT31;56575;48.942;8.404;2023-04-01T02:28:38;10.29;74.76
69387;SHT31;56575;48.942;8.404;2023-04-01T02:31:04;10.34;74.47
69387;SHT31;56575;48.942;8.404;2023-04-01T02:33:30;10.33;74.56
69387;SHT31;56575;48.942;8.404;2023-04-01T02:35:56;10.36;74.29
69387;SHT31;56575;48.942;8.404;2023-04-01T02:38:22;10.37;74.12
69387;SHT31;56575;48.942;8.404;2023-04-01T02:40:50;10.37;73.61
69387;SHT31;56575;48.942;8.404;2023-04-01T02:43:17;10.42;73.56
69387;SHT31;56575;48.942;8.404;2023-04-01T02:45:44;10.42;73.20
69387;SHT31;56575;48.942;8.404;2023-04-01T02:48:09;10.41;73.31
69387;SHT31;56575;48.942;8.404;2023-04-01T02:50:34;10.42;72.99
69387;SHT31;56575;48.942;8.404;2023-04-01T02:53:01;10.40;73.11
69387;SHT31;56575;48.942;8.404;2023-04-01T02:55:29;10.42;73.29
69387;SHT31;56575;48.942;8.404;2023-04-01T02:57:55;10.38;73.66
69387;SHT31;56575;48.942;8.404;2023-04-01T03:00:20;10.34;73.90
69387;SHT31;56575;48.942;8.404;2023-04-01T03:02:46;10.27;75.50
69387;SHT31;56575;48.942;8.404;2023-04-01T03:05:11;10.20;74.87
69387;SHT31;56575;48.942;8.404;2023-04-01T03:07:38;10.23;74.92
69387;SHT31;56575;48.942;8.404;2023-04-01T03:10:04;10.18;75.04
69387;SHT31;56575;48.942;8.404;2023-04-01T03:12:29;10.18;74.70
69387;SHT31;56575;48.942;8.404;2023-04-01T03:14:55;10.18;74.04
69387;SHT31;56575;48.942;8.404;2023-04-01T03:17:20;10.20;74.02
69387;SHT31;56575;48.942;8.404;2023-04-01T03:19:45;10.24;74.12
69387;SHT31;56575;48.942;8.404;2023-04-01T03:22:11;10.25;73.73
69387;SHT31;56575;48.942;8.404;2023-04-01T03:24:36;10.25;73.35
69387;SHT31;56575;48.942;8.404;2023-04-01T03:27:02;10.27;73.01
69387;SHT31;56575;48.942;8.404;2023-04-01T03:29:27;10.25;73.02
69387;SHT31;56575;48.942;8.404;2023-04-01T03:31:52;10.29;73.50
69387;SHT31;56575;48.942;8.404;2023-04-01T03:34:18;10.30;73.41
69387;SHT31;56575;48.942;8.404;2023-04-01T03:36:43;10.31;73.51
69387;SHT31;56575;48.942;8.404;2023-04-01T03:39:09;10.34;73.08
69387;SHT31;56575;48.942;8.404;2023-04-01T03:41:36;10.31;72.94
69387;SHT31;56575;48.942;8.404;2023-04-01T03:44:02;10.34;72.88
69387;SHT31;56575;48.942;8.404;2023-04-01T03:46:27;10.33;73.49
69387;SHT31;56575;48.942;8.404;2023-04-01T03:48:52;10.31;73.25
69387;SHT31;56575;48.942;8.404;2023-04-01T03:51:18;10.34;73.25
69387;SHT31;56575;48.942;8.404;2023-04-01T03:53:43;10.34;73.12
69387;SHT31;56575;48.942;8.404;2023-04-01T03:56:09;10.38;73.07
69387;SHT31;56575;48.942;8.404;2023-04-01T03:58:35;10.37;73.01
69387;SHT31;56575;48.942;8.404;2023-04-01T04:01:00;10.41;73.06
69387;SHT31;56575;48.942;8.404;2023-04-01T04:03:26;10.38;72.92
69387;SHT31;56575;48.942;8.404;2023-04-01T04:05:52;10.47;72.82
69387;SHT31;56575;48.942;8.404;2023-04-01T04:08:17;10.47;73.00
69387;SHT31;56575;48.942;8.404;2023-04-01T04:10:43;10.44;72.84
69387;SHT31;56575;48.942;8.404;2023-04-01T04:13:09;10.49;72.82
69387;SHT31;56575;48.942;8.404;2023-04-01T04:15:35;10.51;73.04
69387;SHT31;56575;48.942;8.404;2023-04-01T04:18:00;10.51;72.98
69387;SHT31;56575;48.942;8.404;2023-04-01T04:20:25;10.54;72.33
69387;SHT31;56575;48.942;8.404;2023-04-01T04:22:51;10.52;72.78
69387;SHT31;56575;48.942;8.404;2023-04-01T04:25:16;10.51;73.09
69387;SHT31;56575;48.942;8.404;2023-04-01T04:27:42;10.51;73.42
69387;SHT31;56575;48.942;8.404;2023-04-01T04:30:09;10.57;72.44
69387;SHT31;56575;48.942;8.404;2023-04-01T04:32:34;10.57;72.42
69387;SHT31;56575;48.942;8.404;2023-04-01T04:35:00;10.61;72.05
69387;SHT31;56575;48.942;8.404;2023-04-01T04:37:26;10.59;72.28
69387;SHT31;56575;48.942;8.404;2023-04-01T04:39:51;10.58;72.02
69387;SHT31;56575;48.942;8.404;2023-04-01T04:42:17;10.58;72.20
69387;SHT31;56575;48.942;8.404;2023-04-01T04:44:42;10.58;72.17
69387;SHT31;56575;48.942;8.404;2023-04-01T04:47:07;10.57;72.55
69387;SHT31;56575;48.942;8.404;2023-04-01T04:49:33;10.57;72.50
69387;SHT31;56575;48.942;8.404;2023-04-01T04:51:58;10.55;72.41
69387;SHT31;56575;48.942;8.404;2023-04-01T04:54:24;10.54;72.28
69387;SHT31;56575;48.942;8.404;2023-04-01T04:56:51;10.52;72.60
69387;SHT31;56575;48.942;8.404;2023-04-01T04:59:17;10.49;72.65
69387;SHT31;56575;48.942;8.404;2023-04-01T05:01:42;10.52;72.79
69387;SHT31;56575;48.942;8.404;2023-04-01T05:04:08;10.49;72.30
69387;SHT31;56575;48.942;8.404;2023-04-01T05:06:33;10.49;72.27
69387;SHT31;56575;48.942;8.404;2023-04-01T05:08:58;10.48;72.00
69387;SHT31;56575;48.942;8.404;2023-04-01T05:11:24;10.48;72.09
69387;SHT31;56575;48.942;8.404;2023-04-01T05:14:04;10.48;71.94
69387;SHT31;56575;48.942;8.404;2023-04-01T05:16:29;10.49;71.55
69387;SHT31;56575;48.942;8.404;2023-04-01T05:18:56;10.51;72.20
69387;SHT31;56575;48.942;8.404;2023-04-01T05:21:21;10.47;72.51
69387;SHT31;56575;48.942;8.404;2023-04-01T05:23:47;10.44;73.41
69387;SHT31;56575;48.942;8.404;2023-04-01T05:26:14;10.38;73.16
69387;SHT31;56575;48.942;8.404;2023-04-01T05:28:40;10.37;73.55
69387;SHT31;56575;48.942;8.404;2023-04-01T05:31:06;10.31;73.66
69387;SHT31;56575;48.942;8.404;2023-04-01T05:33:32;10.30;74.14
69387;SHT31;56575;48.942;8.404;2023-04-01T05:36:12;10.21;74.95
69387;SHT31;56575;48.942;8.404;2023-04-01T05:38:38;10.14;75.09
69387;SHT31;56575;48.942;8.404;2023-04-01T05:41:04;10.12;75.48
69387;SHT31;56575;48.942;8.404;2023-04-01T05:43:29;10.04;75.55
69387;SHT31;56575;48.942;8.404;2023-04-01T05:45:55;9.99;77.82
69387;SHT31;56575;48.942;8.404;2023-04-01T05:48:21;9.93;77.95
69387;SHT31;56575;48.942;8.404;2023-04-01T05:50:46;9.82;78.21
69387;SHT31;56575;48.942;8.404;2023-04-01T05:53:15;9.71;79.32
69387;SHT31;56575;48.942;8.404;2023-04-01T05:55:40;9.63;79.93
69387;SHT31;56575;48.942;8.404;2023-04-01T05:58:05;9.57;79.84
69387;SHT31;56575;48.942;8.404;2023-04-01T06:00:31;9.48;80.68
69387;SHT31;56575;48.942;8.404;2023-04-01T06:02:59;9.40;81.80
69387;SHT31;56575;48.942;8.404;2023-04-01T06:05:28;9.30;83.92
69387;SHT31;56575;48.942;8.404;2023-04-01T06:08:09;9.23;82.89
69387;SHT31;56575;48.942;8.404;2023-04-01T06:13:56;9.19;83.82
69387;SHT31;56575;48.942;8.404;2023-04-01T06:16:54;9.14;85.02
69387;SHT31;56575;48.942;8.404;2023-04-01T06:22:29;9.26;83.34
69387;SHT31;56575;48.942;8.404;2023-04-01T06:25:24;9.27;82.92
69387;SHT31;56575;48.942;8.404;2023-04-01T06:30:48;9.38;82.47
69387;SHT31;56575;48.942;8.404;2023-04-01T06:36:19;9.42;83.16
69387;SHT31;56575;48.942;8.404;2023-04-01T06:47:09;9.27;84.32
69387;SHT31;56575;48.942;8.404;2023-04-01T06:55:32;9.32;84.81
69387;SHT31;56575;48.942;8.404;2023-04-01T06:58:04;9.34;85.75
69387;SHT31;56575;48.942;8.404;2023-04-01T07:00:40;9.34;84.77
69387;SHT31;56575;48.942;8.404;2023-04-01T07:03:16;9.42;86.24
69387;SHT31;56575;48.942;8.404;2023-04-01T07:05:44;9.47;85.87
69387;SHT31;56575;48.942;8.404;2023-04-01T07:08:13;9.44;85.68
69387;SHT31;56575;48.942;8.404;2023-04-01T07:10:43;9.48;85.74
69387;SHT31;56575;48.942;8.404;2023-04-01T07:13:36;9.52;86.28
69387;SHT31;56575;48.942;8.404;2023-04-01T07:21:31;9.49;86.80
69387;SHT31;56575;48.942;8.404;2023-04-01T07:24:04;9.52;86.74
69387;SHT31;56575;48.942;8.404;2023-04-01T07:26:31;9.47;86.60
69387;SHT31;56575;48.942;8.404;2023-04-01T07:28:56;9.40;87.68
69387;SHT31;56575;48.942;8.404;2023-04-01T07:34:15;9.27;88.80
69387;SHT31;56575;48.942;8.404;2023-04-01T07:39:54;9.17;90.13
69387;SHT31;56575;48.942;8.404;2023-04-01T07:42:57;9.10;91.19
69387;SHT31;56575;48.942;8.404;2023-04-01T07:51:15;8.79;93.51
69387;SHT31;56575;48.942;8.404;2023-04-01T07:54:31;8.69;93.34
69387;SHT31;56575;48.942;8.404;2023-04-01T07:57:03;8.75;93.80
69387;SHT31;56575;48.942;8.404;2023-04-01T08:10:56;9.02;92.62
69387;SHT31;56575;48.942;8.404;2023-04-01T08:13:54;9.10;91.88
69387;SHT31;56575;48.942;8.404;2023-04-01T08:16:42;9.23;90.16
69387;SHT31;56575;48.942;8.404;2023-04-01T08:21:47;9.55;87.60
69387;SHT31;56575;48.942;8.404;2023-04-01T08:24:23;9.69;88.73
69387;SHT31;56575;48.942;8.404;2023-04-01T08:26:54;9.72;88.02
69387;SHT31;56575;48.942;8.404;2023-04-01T08:29:23;9.79;88.52
69387;SHT31;56575;48.942;8.404;2023-04-01T08:31:55;9.83;88.61
69387;SHT31;56575;48.942;8.404;2023-04-01T08:34:26;9.82;88.20
69387;SHT31;56575;48.942;8.404;2023-04-01T08:37:01;9.82;88.33
69387;SHT31;56575;48.942;8.404;2023-04-01T08:39:49;9.85;88.05
69387;SHT31;56575;48.942;8.404;2023-04-01T08:59:01;9.75;88.80
69387;SHT31;56575;48.942;8.404;2023-04-01T09:07:38;9.82;86.87
69387;SHT31;56575;48.942;8.404;2023-04-01T09:10:29;9.86;88.51
69387;SHT31;56575;48.942;8.404;2023-04-01T09:13:23;9.90;89.12
69387;SHT31;56575;48.942;8.404;2023-04-01T09:16:08;9.83;88.60
69387;SHT31;56575;48.942;8.404;2023-04-01T09:24:33;9.79;87.70
69387;SHT31;56575;48.942;8.404;2023-04-01T09:27:29;9.83;88.28
69387;SHT31;56575;48.942;8.404;2023-04-01T09:30:20;9.83;88.88
69387;SHT31;56575;48.942;8.404;2023-04-01T09:36:11;9.74;88.00
69387;SHT31;56575;48.942;8.404;2023-04-01T09:41:29;9.76;87.35
69387;SHT31;56575;48.942;8.404;2023-04-01T09:44:17;9.79;87.32
69387;SHT31;56575;48.942;8.404;2023-04-01T09:47:01;9.78;88.00
69387;SHT31;56575;48.942;8.404;2023-04-01T09:49:48;9.79;87.52
69387;SHT31;56575;48.942;8.404;2023-04-01T10:49:15;10.20;83.86
69387;SHT31;56575;48.942;8.404;2023-04-01T10:55:08;10.16;85.31
69387;SHT31;56575;48.942;8.404;2023-04-01T11:01:01;10.04;87.93
69387;SHT31;56575;48.942;8.404;2023-04-01T11:09:20;9.90;90.21
69387;SHT31;56575;48.942;8.404;2023-04-01T11:21:07;9.90;89.70
69387;SHT31;56575;48.942;8.404;2023-04-01T11:29:02;10.02;90.06
69387;SHT31;56575;48.942;8.404;2023-04-01T11:31:37;9.99;89.45
69387;SHT31;56575;48.942;8.404;2023-04-01T11:34:31;10.00;89.95
69387;SHT31;56575;48.942;8.404;2023-04-01T11:43:08;10.04;89.59
69387;SHT31;56575;48.942;8.404;2023-04-01T11:45:58;10.07;89.97
69387;SHT31;56575;48.942;8.404;2023-04-01T11:48:58;10.02;89.99
69387;SHT31;56575;48.942;8.404;2023-04-01T11:51:48;9.99;90.56
69387;SHT31;56575;48.942;8.404;2023-04-01T11:54:50;9.97;89.30
69387;SHT31;56575;48.942;8.404;2023-04-01T12:05:23;10.04;90.81
69387;SHT31;56575;48.942;8.404;2023-04-01T12:14:08;10.10;88.12
69387;SHT31;56575;48.942;8.404;2023-04-01T12:19:29;10.14;88.79
69387;SHT31;56575;48.942;8.404;2023-04-01T12:24:49;10.02;88.37
69387;SHT31;56575;48.942;8.404;2023-04-01T12:30:06;9.93;88.09
69387;SHT31;56575;48.942;8.404;2023-04-01T12:35:21;9.85;88.41
69387;SHT31;56575;48.942;8.404;2023-04-01T12:38:13;9.83;87.99
69387;SHT31;56575;48.942;8.404;2023-04-01T12:46:23;9.72;88.51
69387;SHT31;56575;48.942;8.404;2023-04-01T12:51:29;9.61;90.07
69387;SHT31;56575;48.942;8.404;2023-04-01T13:05:13;9.62;95.42
69387;SHT31;56575;48.942;8.404;2023-04-01T13:08:00;9.52;94.03
69387;SHT31;56575;48.942;8.404;2023-04-01T13:10:59;9.45;91.43
69387;SHT31;56575;48.942;8.404;2023-04-01T13:16:12;9.54;91.23
69387;SHT31;56575;48.942;8.404;2023-04-01T13:19:08;9.55;92.90
69387;SHT31;56575;48.942;8.404;2023-04-01T13:21:50;9.61;91.05
69387;SHT31;56575;48.942;8.404;2023-04-01T13:24:36;9.59;92.08
69387;SHT31;56575;48.942;8.404;2023-04-01T13:43:52;9.24;95.51
69387;SHT31;56575;48.942;8.404;2023-04-01T13:49:16;9.32;95.71
69387;SHT31;56575;48.942;8.404;2023-04-01T14:08:10;9.52;92.94
69387;SHT31;56575;48.942;8.404;2023-04-01T14:13:34;9.51;95.43
69387;SHT31;56575;48.942;8.404;2023-04-01T14:21:35;9.63;93.63
69387;SHT31;56575;48.942;8.404;2023-04-01T14:27:13;9.62;94.13
69387;SHT31;56575;48.942;8.404;2023-04-01T14:43:47;9.76;92.79
69387;SHT31;56575;48.942;8.404;2023-04-01T14:49:18;9.75;93.75
69387;SHT31;56575;48.942;8.404;2023-04-01T14:51:45;9.79;92.66
69387;SHT31;56575;48.942;8.404;2023-04-01T14:59:26;9.86;93.12
69387;SHT31;56575;48.942;8.404;2023-04-01T15:02:03;9.86;94.12
69387;SHT31;56575;48.942;8.404;2023-04-01T15:04:46;9.89;93.29
69387;SHT31;56575;48.942;8.404;2023-04-01T15:07:21;9.89;93.14
69387;SHT31;56575;48.942;8.404;2023-04-01T15:10:12;9.93;92.57
69387;SHT31;56575;48.942;8.404;2023-04-01T15:16:01;9.92;91.92
69387;SHT31;56575;48.942;8.404;2023-04-01T15:21:24;9.92;91.72
69387;SHT31;56575;48.942;8.404;2023-04-01T15:23:58;9.90;91.39
69387;SHT31;56575;48.942;8.404;2023-04-01T15:32:21;9.89;91.15
69387;SHT31;56575;48.942;8.404;2023-04-01T15:40:42;10.09;90.42
69387;SHT31;56575;48.942;8.404;2023-04-01T15:57:56;9.81;90.49
69387;SHT31;56575;48.942;8.404;2023-04-01T16:03:40;9.85;91.41
69387;SHT31;56575;48.942;8.404;2023-04-01T16:12:04;9.90;91.05
69387;SHT31;56575;48.942;8.404;2023-04-01T16:14:55;9.87;91.42
69387;SHT31;56575;48.942;8.404;2023-04-01T16:17:27;9.90;92.43
69387;SHT31;56575;48.942;8.404;2023-04-01T16:20:06;9.86;91.96
69387;SHT31;56575;48.942;8.404;2023-04-01T16:22:45;9.87;92.14
69387;SHT31;56575;48.942;8.404;2023-04-01T16:31:25;9.86;91.44
69387;SHT31;56575;48.942;8.404;2023-04-01T16:34:06;9.82;91.50
69387;SHT31;56575;48.942;8.404;2023-04-01T16:36:47;9.79;91.54
69387;SHT31;56575;48.942;8.404;2023-04-01T16:42:13;9.76;91.99
69387;SHT31;56575;48.942;8.404;2023-04-01T16:44:49;9.78;92.66
69387;SHT31;56575;48.942;8.404;2023-04-01T16:47:19;9.72;94.15
69387;SHT31;56575;48.942;8.404;2023-04-01T16:49:46;9.68;94.83
69387;SHT31;56575;48.942;8.404;2023-04-01T16:52:34;9.62;95.79
69387;SHT31;56575;48.942;8.404;2023-04-01T16:55:04;9.55;95.83
69387;SHT31;56575;48.942;8.404;2023-04-01T16:57:56;9.59;95.40
69387;SHT31;56575;48.942;8.404;2023-04-01T17:00:28;9.57;93.94
69387;SHT31;56575;48.942;8.404;2023-04-01T17:05:21;9.51;93.83
69387;SHT31;56575;48.942;8.404;2023-04-01T17:08:15;9.51;93.62
69387;SHT31;56575;48.942;8.404;2023-04-01T17:11:09;9.48;93.49
69387;SHT31;56575;48.942;8.404;2023-04-01T17:22:17;9.44;93.29
69387;SHT31;56575;48.942;8.404;2023-04-01T17:25:26;9.44;93.53
69387;SHT31;56575;48.942;8.404;2023-04-01T17:31:17;9.48;94.22
69387;SHT31;56575;48.942;8.404;2023-04-01T17:34:06;9.48;94.97
69387;SHT31;56575;48.942;8.404;2023-04-01T17:44:59;9.41;92.53
69387;SHT31;56575;48.942;8.404;2023-04-01T17:50:28;9.34;93.51
69387;SHT31;56575;48.942;8.404;2023-04-01T17:53:14;9.28;92.54
69387;SHT31;56575;48.942;8.404;2023-04-01T17:58:21;9.23;91.74
69387;SHT31;56575;48.942;8.404;2023-04-01T18:06:19;9.23;90.44
69387;SHT31;56575;48.942;8.404;2023-04-01T18:08:59;9.17;91.46
69387;SHT31;56575;48.942;8.404;2023-04-01T18:11:34;9.17;90.50
69387;SHT31;56575;48.942;8.404;2023-04-01T18:19:16;9.06;90.02
69387;SHT31;56575;48.942;8.404;2023-04-01T18:21:50;9.02;90.02
69387;SHT31;56575;48.942;8.404;2023-04-01T18:24:45;8.93;90.35
69387;SHT31;56575;48.942;8.404;2023-04-01T18:29:55;8.95;89.97
69387;SHT31;56575;48.942;8.404;2023-04-01T18:32:48;8.95;89.20
69387;SHT31;56575;48.942;8.404;2023-04-01T18:40:30;9.04;89.10
69387;SHT31;56575;48.942;8.404;2023-04-01T18:43:08;9.04;88.69
69387;SHT31;56575;48.942;8.404;2023-04-01T18:45:39;9.12;88.24
69387;SHT31;56575;48.942;8.404;2023-04-01T18:48:17;9.16;88.17
69387;SHT31;56575;48.942;8.404;2023-04-01T18:50:59;9.02;89.74
69387;SHT31;56575;48.942;8.404;2023-04-01T18:53:34;9.06;88.42
69387;SHT31;56575;48.942;8.404;2023-04-01T18:56:27;9.06;88.77
69387;SHT31;56575;48.942;8.404;2023-04-01T19:07:49;8.95;89.01
69387;SHT31;56575;48.942;8.404;2023-04-01T19:18:29;8.99;89.71
69387;SHT31;56575;48.942;8.404;2023-04-01T19:21:06;9.02;89.49
69387;SHT31;56575;48.942;8.404;2023-04-01T19:26:34;9.10;88.98
69387;SHT31;56575;48.942;8.404;2023-04-01T19:29:25;9.19;87.93
69387;SHT31;56575;48.942;8.404;2023-04-01T19:32:08;9.19;89.39
69387;SHT31;56575;48.942;8.404;2023-04-01T19:35:18;9.26;88.00
69387;SHT31;56575;48.942;8.404;2023-04-01T19:38:04;9.30;88.59
69387;SHT31;56575;48.942;8.404;2023-04-01T19:46:02;9.35;87.56
69387;SHT31;56575;48.942;8.404;2023-04-01T19:53:57;9.40;87.91
69387;SHT31;56575;48.942;8.404;2023-04-01T19:56:34;9.37;88.59
69387;SHT31;56575;48.942;8.404;2023-04-01T19:59:18;9.42;87.65
69387;SHT31;56575;48.942;8.404;2023-04-01T20:01:56;9.42;87.88
69387;SHT31;56575;48.942;8.404;2023-04-01T20:04:41;9.44;88.43
69387;SHT31;56575;48.942;8.404;2023-04-01T20:07:16;9.49;87.54
69387;SHT31;56575;48.942;8.404;2023-04-01T20:12:49;9.54;87.34
69387;SHT31;56575;48.942;8.404;2023-04-01T20:18:08;9.49;88.42
69387;SHT31;56575;48.942;8.404;2023-04-01T20:20:39;9.44;88.71
69387;SHT31;56575;48.942;8.404;2023-04-01T20:25:39;9.40;89.30
69387;SHT31;56575;48.942;8.404;2023-04-01T20:31:08;9.30;89.50
69387;SHT31;56575;48.942;8.404;2023-04-01T20:39:48;9.21;89.68
69387;SHT31;56575;48.942;8.404;2023-04-01T20:42:40;9.26;89.34
69387;SHT31;56575;48.942;8.404;2023-04-01T20:45:30;9.21;89.03
69387;SHT31;56575;48.942;8.404;2023-04-01T20:51:07;9.26;88.57
69387;SHT31;56575;48.942;8.404;2023-04-01T20:53:54;9.27;88.13
69387;SHT31;56575;48.942;8.404;2023-04-01T20:56:45;9.26;88.52
69387;SHT31;56575;48.942;8.404;2023-04-01T20:59:16;9.28;88.21
69387;SHT31;56575;48.942;8.404;2023-04-01T21:05:00;9.31;87.86
69387;SHT31;56575;48.942;8.404;2023-04-01T21:07:40;9.32;87.30
69387;SHT31;56575;48.942;8.404;2023-04-01T21:13:21;9.35;87.32
69387;SHT31;56575;48.942;8.404;2023-04-01T21:16:15;9.37;87.66
69387;SHT31;56575;48.942;8.404;2023-04-01T21:22:11;9.44;84.76
69387;SHT31;56575;48.942;8.404;2023-04-01T21:41:44;9.51;83.65
69387;SHT31;56575;48.942;8.404;2023-04-01T21:44:45;9.47;84.11
69387;SHT31;56575;48.942;8.404;2023-04-01T21:50:12;9.72;85.83
69387;SHT31;56575;48.942;8.404;2023-04-01T22:06:47;9.58;82.38
69387;SHT31;56575;48.942;8.404;2023-04-01T22:12:07;9.59;82.22
69387;SHT31;56575;48.942;8.404;2023-04-01T22:17:54;9.59;82.69
69387;SHT31;56575;48.942;8.404;2023-04-01T22:20:33;9.62;81.97
69387;SHT31;56575;48.942;8.404;2023-04-01T22:23:18;9.59;82.46
69387;SHT31;56575;48.942;8.404;2023-04-01T22:28:35;9.59;82.99
69387;SHT31;56575;48.942;8.404;2023-04-01T22:31:04;9.58;82.89
69387;SHT31;56575;48.942;8.404;2023-04-01T22:41:51;9.61;83.07
69387;SHT31;56575;48.942;8.404;2023-04-01T22:49:43;9.62;82.49
69387;SHT31;56575;48.942;8.404;2023-04-01T22:54:54;9.62;82.87
69387;SHT31;56575;48.942;8.404;2023-04-01T23:05:35;9.69;81.66
69387;SHT31;56575;48.942;8.404;2023-04-01T23:10:42;9.67;81.71
69387;SHT31;56575;48.942;8.404;2023-04-01T23:13:18;9.67;82.31
69387;SHT31;56575;48.942;8.404;2023-04-01T23:15:46;9.67;82.35
69387;SHT31;56575;48.942;8.404;2023-04-01T23:18:24;9.58;83.04
69387;SHT31;56575;48.942;8.404;2023-04-01T23:20:59;9.54;83.04
69387;SHT31;56575;48.942;8.404;2023-04-01T23:23:38;9.47;83.94
69387;SHT31;56575;48.942;8.404;2023-04-01T23:26:12;9.41;84.30
69387;SHT31;56575;48.942;8.404;2023-04-01T23:28:49;9.35;84.99
69387;SHT31;56575;48.942;8.404;2023-04-01T23:34:00;9.16;86.02
69387;SHT31;56575;48.942;8.404;2023-04-01T23:36:28;9.09;86.54
69387;SHT31;56575;48.942;8.404;2023-04-01T23:38:55;9.09;86.65
69387;SHT31;56575;48.942;8.404;2023-04-01T23:41:29;9.03;86.78
69387;SHT31;56575;48.942;8.404;2023-04-01T23:44:15;8.97;87.31
69387;SHT31;56575;48.942;8.404;2023-04-01T23:46:42;8.96;88.72
69387;SHT31;56575;48.942;8.404;2023-04-01T23:49:30;8.90;89.74
69387;SHT31;56575;48.942;8.404;2023-04-01T23:52:03;8.86;90.67
69387;SHT31;56575;48.942;8.404;2023-04-01T23:54:39;8.68;90.85
69387;SHT31;56575;48.942;8.404;2023-04-01T23:57:13;8.61;91.81
69387;SHT31;56575;48.942;8.404;2023-04-01T23:59:40;8.59;92.26
